sensor_id;sensor_type;location;lat;lon;timestamp;temperature;humidity
26521;DHT22;14192;0.00000000;0.00000000;2023-04-15T00:00:22;22.10;63.60
26521;DHT22;14192;0.00000000;0.00000000;2023-04-15T00:02:49;22.10;64.40
26521;DHT22;14192;0.00000000;0.00000000;2023-04-15T00:05:17;22.10;64.30
26521;DHT22;14192;0.00000000;0.00000000;2023-04-15T00:07:44;22.00;64.80
26521;DHT22;14192;0.00000000;0.00000000;2023-04-15T00:10:13;22.00;65.60
26521;DHT22;14192;0.00000000;0.00000000;2023-04-15T00:12:40;22.00;82.40
26521;DHT22;14192;0.00000000;0.00000000;2023-04-15T00:15:10;22.10;65.50
26521;DHT22;14192;0.00000000;0.00000000;2023-04-15T00:17:37;22.10;66.30
26521;DHT22;14192;0.00000000;0.00000000;2023-04-15T00:20:05;22.00;64.70
26521;DHT22;14192;0.00000000;0.00000000;2023-04-15T00:22:32;22.00;63.90
26521;DHT22;14192;0.00000000;0.00000000;2023-04-15T00:24:59;21.90;63.00
26521;DHT22;14192;0.00000000;0.00000000;2023-04-15T00:27:28;21.90;62.60
26521;DHT22;14192;0.00000000;0.00000000;2023-04-15T00:29:55;21.80;62.20
26521;DHT22;14192;0.00000000;0.00000000;2023-04-15T00:32:22;21.80;61.70
26521;DHT22;14192;0.00000000;0.00000000;2023-04-15T00:34:49;21.70;61.30
26521;DHT22;14192;0.00000000;0.00000000;2023-04-15T00:37:17;21.70;61.00
26521;DHT22;14192;0.00000000;0.00000000;2023-04-15T00:39:46;21.70;61.00
26521;DHT22;14192;0.00000000;0.00000000;2023-04-15T00:42:13;21.50;59.60
26521;DHT22;14192;0.00000000;0.00000000;2023-04-15T00:44:42;21.50;60.60
26521;DHT22;14192;0.00000000;0.00000000;2023-04-15T00:47:09;21.50;59.60
26521;DHT22;14192;0.00000000;0.00000000;2023-04-15T00:49:37;21.50;60.00
26521;DHT22;14192;0.00000000;0.00000000;2023-04-15T00:52:04;21.40;59.00
26521;DHT22;14192;0.00000000;0.00000000;2023-04-15T00:54:31;21.40;58.80
26521;DHT22;14192;0.00000000;0.00000000;2023-04-15T00:56:58;21.40;58.80
26521;DHT22;14192;0.00000000;0.00000000;2023-04-15T00:59:26;21.30;58.80
26521;DHT22;14192;0.00000000;0.00000000;2023-04-15T01:01:54;21.30;59.30
26521;DHT22;14192;0.00000000;0.00000000;2023-04-15T01:04:21;21.20;59.10
26521;DHT22;14192;0.00000000;0.00000000;2023-04-15T01:06:48;21.20;59.10
26521;DHT22;14192;0.00000000;0.00000000;2023-04-15T01:09:16;21.20;58.80
26521;DHT22;14192;0.00000000;0.00000000;2023-04-15T01:11:43;21.10;58.50
26521;DHT22;14192;0.00000000;0.00000000;2023-04-15T01:14:10;21.10;58.90
26521;DHT22;14192;0.00000000;0.00000000;2023-04-15T01:16:37;21.10;58.90
26521;DHT22;14192;0.00000000;0.00000000;2023-04-15T01:19:07;21.00;58.90
26521;DHT22;14192;0.00000000;0.00000000;2023-04-15T01:24:08;21.00;58.00
26521;DHT22;14192;0.00000000;0.00000000;2023-04-15T01:26:36;20.90;58.60
26521;DHT22;14192;0.00000000;0.00000000;2023-04-15T01:31:31;20.90;57.80
26521;DHT22;14192;0.00000000;0.00000000;2023-04-15T01:33:58;20.90;58.30
26521;DHT22;14192;0.00000000;0.00000000;2023-04-15T01:36:25;22.20;58.20
26521;DHT22;14192;0.00000000;0.00000000;2023-04-15T01:41:21;20.80;58.00
26521;DHT22;14192;0.00000000;0.00000000;2023-04-15T01:43:51;20.70;58.00
26521;DHT22;14192;0.00000000;0.00000000;2023-04-15T01:46:18;20.70;58.00
26521;DHT22;14192;0.00000000;0.00000000;2023-04-15T01:48:45;20.70;57.90
26521;DHT22;14192;0.00000000;0.00000000;2023-04-15T01:51:11;20.70;57.80
26521;DHT22;14192;0.00000000;0.00000000;2023-04-15T01:53:38;20.60;57.70
26521;DHT22;14192;0.00000000;0.00000000;2023-04-15T01:56:06;20.60;57.70
26521;DHT22;14192;0.00000000;0.00000000;2023-04-15T01:58:33;20.60;58.20
26521;DHT22;14192;0.00000000;0.00000000;2023-04-15T02:01:01;20.50;57.50
26521;DHT22;14192;0.00000000;0.00000000;2023-04-15T02:03:29;20.50;57.20
26521;DHT22;14192;0.00000000;0.00000000;2023-04-15T02:05:56;20.50;57.30
26521;DHT22;14192;0.00000000;0.00000000;2023-04-15T02:08:23;20.50;57.30
26521;DHT22;14192;0.00000000;0.00000000;2023-04-15T02:10:50;20.50;57.30
26521;DHT22;14192;0.00000000;0.00000000;2023-04-15T02:13:17;20.40;57.20
26521;DHT22;14192;0.00000000;0.00000000;2023-04-15T02:15:46;20.40;57.20
26521;DHT22;14192;0.00000000;0.00000000;2023-04-15T02:18:15;20.40;56.50
26521;DHT22;14192;0.00000000;0.00000000;2023-04-15T02:20:42;20.30;56.40
26521;DHT22;14192;0.00000000;0.00000000;2023-04-15T02:23:10;20.30;56.90
26521;DHT22;14192;0.00000000;0.00000000;2023-04-15T02:25:37;20.30;56.90
26521;DHT22;14192;0.00000000;0.00000000;2023-04-15T02:28:04;20.20;56.90
26521;DHT22;14192;0.00000000;0.00000000;2023-04-15T02:30:31;20.20;56.90
26521;DHT22;14192;0.00000000;0.00000000;2023-04-15T02:32:59;20.10;56.50
26521;DHT22;14192;0.00000000;0.00000000;2023-04-15T02:35:27;20.10;56.30
26521;DHT22;14192;0.00000000;0.00000000;2023-04-15T02:37:54;20.10;56.80
26521;DHT22;14192;0.00000000;0.00000000;2023-04-15T02:40:21;20.10;56.80
26521;DHT22;14192;0.00000000;0.00000000;2023-04-15T02:42:48;20.00;56.70
26521;DHT22;14192;0.00000000;0.00000000;2023-04-15T02:45:15;20.00;56.80
26521;DHT22;14192;0.00000000;0.00000000;2023-04-15T02:47:44;19.90;56.80
26521;DHT22;14192;0.00000000;0.00000000;2023-04-15T02:50:13;19.90;56.70
26521;DHT22;14192;0.00000000;0.00000000;2023-04-15T02:52:42;19.80;56.00
26521;DHT22;14192;0.00000000;0.00000000;2023-04-15T02:55:09;19.80;56.00
26521;DHT22;14192;0.00000000;0.00000000;2023-04-15T02:57:36;19.80;56.50
26521;DHT22;14192;0.00000000;0.00000000;2023-04-15T03:00:04;19.70;56.30
26521;DHT22;14192;0.00000000;0.00000000;2023-04-15T03:05:01;19.60;55.90
26521;DHT22;14192;0.00000000;0.00000000;2023-04-15T03:07:28;19.70;56.30
26521;DHT22;14192;0.00000000;0.00000000;2023-04-15T03:09:57;19.70;56.30
26521;DHT22;14192;0.00000000;0.00000000;2023-04-15T03:12:23;19.60;56.30
26521;DHT22;14192;0.00000000;0.00000000;2023-04-15T03:14:50;19.60;56.40
26521;DHT22;14192;0.00000000;0.00000000;2023-04-15T03:17:17;19.50;55.80
26521;DHT22;14192;0.00000000;0.00000000;2023-04-15T03:19:44;19.50;55.70
26521;DHT22;14192;0.00000000;0.00000000;2023-04-15T03:22:11;19.60;56.40
26521;DHT22;14192;0.00000000;0.00000000;2023-04-15T03:24:37;19.40;55.70
26521;DHT22;14192;0.00000000;0.00000000;2023-04-15T03:27:06;19.40;55.70
26521;DHT22;14192;0.00000000;0.00000000;2023-04-15T03:29:33;19.40;56.20
26521;DHT22;14192;0.00000000;0.00000000;2023-04-15T03:32:00;19.40;56.30
26521;DHT22;14192;0.00000000;0.00000000;2023-04-15T03:34:27;19.40;56.30
26521;DHT22;14192;0.00000000;0.00000000;2023-04-15T03:36:54;19.30;56.20
26521;DHT22;14192;0.00000000;0.00000000;2023-04-15T03:39:21;19.30;56.20
26521;DHT22;14192;0.00000000;0.00000000;2023-04-15T03:41:48;19.30;56.30
26521;DHT22;14192;0.00000000;0.00000000;2023-04-15T03:44:16;19.20;56.20
26521;DHT22;14192;0.00000000;0.00000000;2023-04-15T03:46:43;19.20;56.20
26521;DHT22;14192;0.00000000;0.00000000;2023-04-15T03:49:10;19.20;56.20
26521;DHT22;14192;0.00000000;0.00000000;2023-04-15T03:51:37;19.20;56.30
26521;DHT22;14192;0.00000000;0.00000000;2023-04-15T03:54:03;19.20;56.30
26521;DHT22;14192;0.00000000;0.00000000;2023-04-15T03:56:30;19.10;56.20
26521;DHT22;14192;0.00000000;0.00000000;2023-04-15T03:58:57;19.10;56.10
26521;DHT22;14192;0.00000000;0.00000000;2023-04-15T04:01:25;19.10;56.10
26521;DHT22;14192;0.00000000;0.00000000;2023-04-15T04:03:52;19.00;56.20
26521;DHT22;14192;0.00000000;0.00000000;2023-04-15T04:06:19;19.00;56.20
26521;DHT22;14192;0.00000000;0.00000000;2023-04-15T04:08:46;19.00;56.20
26521;DHT22;14192;0.00000000;0.00000000;2023-04-15T04:11:13;19.00;56.30
26521;DHT22;14192;0.00000000;0.00000000;2023-04-15T04:13:40;19.00;56.30
26521;DHT22;14192;0.00000000;0.00000000;2023-04-15T04:16:06;18.90;56.10
26521;DHT22;14192;0.00000000;0.00000000;2023-04-15T04:18:35;18.90;55.90
26521;DHT22;14192;0.00000000;0.00000000;2023-04-15T04:21:02;18.90;55.80
26521;DHT22;14192;0.00000000;0.00000000;2023-04-15T04:23:28;18.90;55.70
26521;DHT22;14192;0.00000000;0.00000000;2023-04-15T04:25:55;19.00;55.50
26521;DHT22;14192;0.00000000;0.00000000;2023-04-15T04:28:22;19.00;55.50
26521;DHT22;14192;0.00000000;0.00000000;2023-04-15T04:30:49;19.00;55.30
26521;DHT22;14192;0.00000000;0.00000000;2023-04-15T04:33:16;19.00;55.20
26521;DHT22;14192;0.00000000;0.00000000;2023-04-15T04:35:44;19.00;55.10
26521;DHT22;14192;0.00000000;0.00000000;2023-04-15T04:38:11;19.00;55.00
26521;DHT22;14192;0.00000000;0.00000000;2023-04-15T04:40:38;19.10;55.00
26521;DHT22;14192;0.00000000;0.00000000;2023-04-15T04:43:05;19.00;54.90
26521;DHT22;14192;0.00000000;0.00000000;2023-04-15T04:45:32;19.10;54.90
26521;DHT22;14192;0.00000000;0.00000000;2023-04-15T04:47:59;19.10;55.40
26521;DHT22;14192;0.00000000;0.00000000;2023-04-15T04:50:26;19.10;54.70
26521;DHT22;14192;0.00000000;0.00000000;2023-04-15T04:52:54;19.10;54.60
26521;DHT22;14192;0.00000000;0.00000000;2023-04-15T04:55:21;19.10;54.60
26521;DHT22;14192;0.00000000;0.00000000;2023-04-15T04:57:47;19.10;54.40
26521;DHT22;14192;0.00000000;0.00000000;2023-04-15T05:00:14;19.10;54.40
26521;DHT22;14192;0.00000000;0.00000000;2023-04-15T05:02:41;19.10;54.40
26521;DHT22;14192;0.00000000;0.00000000;2023-04-15T05:05:09;19.10;54.30
26521;DHT22;14192;0.00000000;0.00000000;2023-04-15T05:07:36;19.10;54.30
26521;DHT22;14192;0.00000000;0.00000000;2023-04-15T05:10:05;19.10;54.20
26521;DHT22;14192;0.00000000;0.00000000;2023-04-15T05:12:32;19.10;54.20
26521;DHT22;14192;0.00000000;0.00000000;2023-04-15T05:14:59;19.20;54.20
26521;DHT22;14192;0.00000000;0.00000000;2023-04-15T05:17:26;19.10;54.20
26521;DHT22;14192;0.00000000;0.00000000;2023-04-15T05:19:55;19.20;54.20
26521;DHT22;14192;0.00000000;0.00000000;2023-04-15T05:22:22;19.30;54.10
26521;DHT22;14192;0.00000000;0.00000000;2023-04-15T05:24:49;19.20;54.00
26521;DHT22;14192;0.00000000;0.00000000;2023-04-15T05:27:17;19.20;54.10
26521;DHT22;14192;0.00000000;0.00000000;2023-04-15T05:29:44;19.20;54.00
26521;DHT22;14192;0.00000000;0.00000000;2023-04-15T05:32:13;19.20;54.00
26521;DHT22;14192;0.00000000;0.00000000;2023-04-15T05:34:40;19.20;54.00
26521;DHT22;14192;0.00000000;0.00000000;2023-04-15T05:37:07;19.10;53.90
26521;DHT22;14192;0.00000000;0.00000000;2023-04-15T05:39:34;19.20;54.00
26521;DHT22;14192;0.00000000;0.00000000;2023-04-15T05:42:01;19.20;54.00
26521;DHT22;14192;0.00000000;0.00000000;2023-04-15T05:44:29;19.40;54.10
26521;DHT22;14192;0.00000000;0.00000000;2023-04-15T05:46:56;19.20;54.00
26521;DHT22;14192;0.00000000;0.00000000;2023-04-15T05:49:23;19.20;54.00
26521;DHT22;14192;0.00000000;0.00000000;2023-04-15T05:51:50;19.20;54.00
26521;DHT22;14192;0.00000000;0.00000000;2023-04-15T05:54:16;19.20;54.00
26521;DHT22;14192;0.00000000;0.00000000;2023-04-15T05:56:43;19.20;54.10
26521;DHT22;14192;0.00000000;0.00000000;2023-04-15T05:59:10;19.20;54.10
26521;DHT22;14192;0.00000000;0.00000000;2023-04-15T06:01:39;19.20;54.20
26521;DHT22;14192;0.00000000;0.00000000;2023-04-15T06:04:05;19.20;54.20
26521;DHT22;14192;0.00000000;0.00000000;2023-04-15T06:06:32;19.20;54.20
26521;DHT22;14192;0.00000000;0.00000000;2023-04-15T06:08:59;19.10;54.20
26521;DHT22;14192;0.00000000;0.00000000;2023-04-15T06:11:26;19.20;54.30
26521;DHT22;14192;0.00000000;0.00000000;2023-04-15T06:13:53;19.10;54.20
26521;DHT22;14192;0.00000000;0.00000000;2023-04-15T06:16:20;19.20;54.40
26521;DHT22;14192;0.00000000;0.00000000;2023-04-15T06:18:48;19.20;54.30
26521;DHT22;14192;0.00000000;0.00000000;2023-04-15T06:21:15;19.20;54.30
26521;DHT22;14192;0.00000000;0.00000000;2023-04-15T06:23:43;19.10;53.80
26521;DHT22;14192;0.00000000;0.00000000;2023-04-15T06:26:10;19.20;53.80
26521;DHT22;14192;0.00000000;0.00000000;2023-04-15T06:28:36;19.10;53.80
26521;DHT22;14192;0.00000000;0.00000000;2023-04-15T06:33:31;19.20;53.80
26521;DHT22;14192;0.00000000;0.00000000;2023-04-15T06:35:59;19.20;53.80
26521;DHT22;14192;0.00000000;0.00000000;2023-04-15T06:43:20;19.20;53.90
26521;DHT22;14192;0.00000000;0.00000000;2023-04-15T06:45:47;19.30;53.90
26521;DHT22;14192;0.00000000;0.00000000;2023-04-15T06:48:13;19.30;54.50
26521;DHT22;14192;0.00000000;0.00000000;2023-04-15T06:50:40;19.30;53.90
26521;DHT22;14192;0.00000000;0.00000000;2023-04-15T06:53:09;19.40;53.90
26521;DHT22;14192;0.00000000;0.00000000;2023-04-15T06:58:03;19.40;53.80
26521;DHT22;14192;0.00000000;0.00000000;2023-04-15T07:00:29;19.40;53.80
26521;DHT22;14192;0.00000000;0.00000000;2023-04-15T07:02:58;19.40;54.40
26521;DHT22;14192;0.00000000;0.00000000;2023-04-15T07:05:27;19.50;54.40
26521;DHT22;14192;0.00000000;0.00000000;2023-04-15T07:07:54;19.50;53.80
26521;DHT22;14192;0.00000000;0.00000000;2023-04-15T07:10:23;19.50;53.70
26521;DHT22;14192;0.00000000;0.00000000;2023-04-15T07:12:50;19.50;53.60
26521;DHT22;14192;0.00000000;0.00000000;2023-04-15T07:15:17;19.60;53.70
26521;DHT22;14192;0.00000000;0.00000000;2023-04-15T07:17:44;19.50;53.50
26521;DHT22;14192;0.00000000;0.00000000;2023-04-15T07:20:11;19.60;53.50
26521;DHT22;14192;0.00000000;0.00000000;2023-04-15T07:25:07;19.70;53.50
26521;DHT22;14192;0.00000000;0.00000000;2023-04-15T07:27:35;19.70;54.00
26521;DHT22;14192;0.00000000;0.00000000;2023-04-15T07:34:56;19.70;53.30
26521;DHT22;14192;0.00000000;0.00000000;2023-04-15T07:37:23;19.70;53.40
26521;DHT22;14192;0.00000000;0.00000000;2023-04-15T07:39:50;19.80;54.90
26521;DHT22;14192;0.00000000;0.00000000;2023-04-15T07:42:18;19.80;55.40
26521;DHT22;14192;0.00000000;0.00000000;2023-04-15T07:44:46;19.90;55.30
26521;DHT22;14192;0.00000000;0.00000000;2023-04-15T07:47:13;20.10;55.80
26521;DHT22;14192;0.00000000;0.00000000;2023-04-15T07:49:40;20.40;56.90
26521;DHT22;14192;0.00000000;0.00000000;2023-04-15T07:52:07;20.40;55.00
26521;DHT22;14192;0.00000000;0.00000000;2023-04-15T07:54:34;20.50;54.80
26521;DHT22;14192;0.00000000;0.00000000;2023-04-15T07:57:01;20.40;54.50
26521;DHT22;14192;0.00000000;0.00000000;2023-04-15T07:59:28;20.40;54.40
26521;DHT22;14192;0.00000000;0.00000000;2023-04-15T08:01:59;20.40;54.80
26521;DHT22;14192;0.00000000;0.00000000;2023-04-15T08:04:26;20.40;54.50
26521;DHT22;14192;0.00000000;0.00000000;2023-04-15T08:06:53;20.50;54.10
26521;DHT22;14192;0.00000000;0.00000000;2023-04-15T08:09:20;20.40;53.70
26521;DHT22;14192;0.00000000;0.00000000;2023-04-15T08:11:48;20.40;53.40
26521;DHT22;14192;0.00000000;0.00000000;2023-04-15T08:14:15;20.40;53.30
26521;DHT22;14192;0.00000000;0.00000000;2023-04-15T08:16:42;20.40;53.90
26521;DHT22;14192;0.00000000;0.00000000;2023-04-15T08:19:10;20.40;53.40
26521;DHT22;14192;0.00000000;0.00000000;2023-04-15T08:21:40;20.40;53.80
26521;DHT22;14192;0.00000000;0.00000000;2023-04-15T08:24:07;20.40;53.80
26521;DHT22;14192;0.00000000;0.00000000;2023-04-15T08:29:01;20.30;53.20
26521;DHT22;14192;0.00000000;0.00000000;2023-04-15T08:31:28;20.40;55.70
26521;DHT22;14192;0.00000000;0.00000000;2023-04-15T08:33:56;20.40;54.30
26521;DHT22;14192;0.00000000;0.00000000;2023-04-15T08:36:25;20.20;54.00
26521;DHT22;14192;0.00000000;0.00000000;2023-04-15T08:38:52;21.70;54.90
26521;DHT22;14192;0.00000000;0.00000000;2023-04-15T08:41:21;20.30;53.90
26521;DHT22;14192;0.00000000;0.00000000;2023-04-15T08:43:52;20.30;54.40
26521;DHT22;14192;0.00000000;0.00000000;2023-04-15T08:46:20;20.30;54.40
26521;DHT22;14192;0.00000000;0.00000000;2023-04-15T08:48:48;20.30;54.40
26521;DHT22;14192;0.00000000;0.00000000;2023-04-15T08:51:16;20.40;54.40
26521;DHT22;14192;0.00000000;0.00000000;2023-04-15T08:53:44;20.40;54.20
26521;DHT22;14192;0.00000000;0.00000000;2023-04-15T08:56:14;20.50;54.20
26521;DHT22;14192;0.00000000;0.00000000;2023-04-15T08:58:42;20.50;54.30
26521;DHT22;14192;0.00000000;0.00000000;2023-04-15T09:01:11;20.60;54.10
26521;DHT22;14192;0.00000000;0.00000000;2023-04-15T09:03:38;20.60;53.40
26521;DHT22;14192;0.00000000;0.00000000;2023-04-15T09:06:05;20.60;53.90
26521;DHT22;14192;0.00000000;0.00000000;2023-04-15T09:08:32;20.60;53.90
26521;DHT22;14192;0.00000000;0.00000000;2023-04-15T09:11:02;20.60;53.80
26521;DHT22;14192;0.00000000;0.00000000;2023-04-15T09:13:29;20.70;54.20
26521;DHT22;14192;0.00000000;0.00000000;2023-04-15T09:15:56;20.70;53.80
26521;DHT22;14192;0.00000000;0.00000000;2023-04-15T09:18:27;20.70;53.90
26521;DHT22;14192;0.00000000;0.00000000;2023-04-15T09:20:55;20.80;54.60
26521;DHT22;14192;0.00000000;0.00000000;2023-04-15T09:23:22;20.80;55.10
26521;DHT22;14192;0.00000000;0.00000000;2023-04-15T09:25:49;20.90;54.00
26521;DHT22;14192;0.00000000;0.00000000;2023-04-15T09:28:24;21.00;54.10
26521;DHT22;14192;0.00000000;0.00000000;2023-04-15T09:30:54;21.10;53.60
26521;DHT22;14192;0.00000000;0.00000000;2023-04-15T09:33:22;21.10;53.50
26521;DHT22;14192;0.00000000;0.00000000;2023-04-15T09:35:57;21.10;53.40
26521;DHT22;14192;0.00000000;0.00000000;2023-04-15T09:38:24;21.10;53.10
26521;DHT22;14192;0.00000000;0.00000000;2023-04-15T09:40:54;21.10;53.30
26521;DHT22;14192;0.00000000;0.00000000;2023-04-15T09:43:21;21.20;53.10
26521;DHT22;14192;0.00000000;0.00000000;2023-04-15T09:45:50;21.20;53.00
26521;DHT22;14192;0.00000000;0.00000000;2023-04-15T09:48:19;21.20;53.50
26521;DHT22;14192;0.00000000;0.00000000;2023-04-15T09:50:47;21.20;53.40
26521;DHT22;14192;0.00000000;0.00000000;2023-04-15T09:53:18;21.30;53.40
26521;DHT22;14192;0.00000000;0.00000000;2023-04-15T09:55:49;21.20;53.40
26521;DHT22;14192;0.00000000;0.00000000;2023-04-15T09:58:20;21.20;53.60
26521;DHT22;14192;0.00000000;0.00000000;2023-04-15T10:00:50;21.10;53.80
26521;DHT22;14192;0.00000000;0.00000000;2023-04-15T10:03:19;21.10;53.40
26521;DHT22;14192;0.00000000;0.00000000;2023-04-15T10:05:48;21.10;53.30
26521;DHT22;14192;0.00000000;0.00000000;2023-04-15T10:08:17;21.10;53.40
26521;DHT22;14192;0.00000000;0.00000000;2023-04-15T10:10:45;21.10;53.70
26521;DHT22;14192;0.00000000;0.00000000;2023-04-15T10:13:13;21.00;53.50
26521;DHT22;14192;0.00000000;0.00000000;2023-04-15T10:15:43;21.00;53.40
26521;DHT22;14192;0.00000000;0.00000000;2023-04-15T10:18:15;21.00;53.00
26521;DHT22;14192;0.00000000;0.00000000;2023-04-15T10:20:43;21.10;53.30
26521;DHT22;14192;0.00000000;0.00000000;2023-04-15T10:23:12;21.20;53.10
26521;DHT22;14192;0.00000000;0.00000000;2023-04-15T10:25:39;21.20;53.10
26521;DHT22;14192;0.00000000;0.00000000;2023-04-15T10:28:07;21.20;53.00
26521;DHT22;14192;0.00000000;0.00000000;2023-04-15T10:30:35;21.30;53.60
26521;DHT22;14192;0.00000000;0.00000000;2023-04-15T10:33:03;21.20;53.30
26521;DHT22;14192;0.00000000;0.00000000;2023-04-15T10:35:34;21.30;53.50
26521;DHT22;14192;0.00000000;0.00000000;2023-04-15T10:38:04;21.30;53.50
26521;DHT22;14192;0.00000000;0.00000000;2023-04-15T10:43:24;21.30;53.40
26521;DHT22;14192;0.00000000;0.00000000;2023-04-15T10:45:52;21.30;53.60
26521;DHT22;14192;0.00000000;0.00000000;2023-04-15T10:48:20;21.30;53.70
26521;DHT22;14192;0.00000000;0.00000000;2023-04-15T10:50:56;21.30;53.80
26521;DHT22;14192;0.00000000;0.00000000;2023-04-15T10:53:29;21.40;53.80
26521;DHT22;14192;0.00000000;0.00000000;2023-04-15T10:55:57;21.40;54.10
26521;DHT22;14192;0.00000000;0.00000000;2023-04-15T10:58:24;21.60;54.50
26521;DHT22;14192;0.00000000;0.00000000;2023-04-15T11:00:52;21.40;54.30
26521;DHT22;14192;0.00000000;0.00000000;2023-04-15T11:03:35;21.40;53.80
26521;DHT22;14192;0.00000000;0.00000000;2023-04-15T11:06:04;21.40;53.90
26521;DHT22;14192;0.00000000;0.00000000;2023-04-15T11:08:56;21.40;53.90
26521;DHT22;14192;0.00000000;0.00000000;2023-04-15T11:14:25;21.40;54.60
26521;DHT22;14192;0.00000000;0.00000000;2023-04-15T11:16:52;21.40;54.60
26521;DHT22;14192;0.00000000;0.00000000;2023-04-15T11:19:19;21.40;54.80
26521;DHT22;14192;0.00000000;0.00000000;2023-04-15T11:21:47;21.40;56.00
26521;DHT22;14192;0.00000000;0.00000000;2023-04-15T11:24:23;21.30;56.60
26521;DHT22;14192;0.00000000;0.00000000;2023-04-15T11:26:56;21.40;54.90
26521;DHT22;14192;0.00000000;0.00000000;2023-04-15T11:29:28;21.40;54.50
26521;DHT22;14192;0.00000000;0.00000000;2023-04-15T11:32:04;21.40;54.70
26521;DHT22;14192;0.00000000;0.00000000;2023-04-15T11:34:37;21.50;54.40
26521;DHT22;14192;0.00000000;0.00000000;2023-04-15T11:37:05;21.60;53.30
26521;DHT22;14192;0.00000000;0.00000000;2023-04-15T11:39:33;21.60;53.20
26521;DHT22;14192;0.00000000;0.00000000;2023-04-15T11:42:00;21.60;53.30
26521;DHT22;14192;0.00000000;0.00000000;2023-04-15T11:44:28;21.70;53.30
26521;DHT22;14192;0.00000000;0.00000000;2023-04-15T11:46:55;21.70;53.30
26521;DHT22;14192;0.00000000;0.00000000;2023-04-15T11:49:25;21.60;53.40
26521;DHT22;14192;0.00000000;0.00000000;2023-04-15T11:51:53;21.60;53.70
26521;DHT22;14192;0.00000000;0.00000000;2023-04-15T11:54:22;21.60;54.60
26521;DHT22;14192;0.00000000;0.00000000;2023-04-15T11:56:50;21.60;54.60
26521;DHT22;14192;0.00000000;0.00000000;2023-04-15T11:59:19;21.60;54.00
26521;DHT22;14192;0.00000000;0.00000000;2023-04-15T12:01:45;21.60;53.80
26521;DHT22;14192;0.00000000;0.00000000;2023-04-15T12:04:14;21.60;54.30
26521;DHT22;14192;0.00000000;0.00000000;2023-04-15T12:06:42;21.60;54.50
26521;DHT22;14192;0.00000000;0.00000000;2023-04-15T12:09:10;21.60;54.60
26521;DHT22;14192;0.00000000;0.00000000;2023-04-15T12:11:41;21.60;54.00
26521;DHT22;14192;0.00000000;0.00000000;2023-04-15T12:14:10;21.60;54.50
26521;DHT22;14192;0.00000000;0.00000000;2023-04-15T12:16:40;21.60;54.50
26521;DHT22;14192;0.00000000;0.00000000;2023-04-15T12:19:10;21.70;54.60
26521;DHT22;14192;0.00000000;0.00000000;2023-04-15T12:21:39;21.70;54.60
26521;DHT22;14192;0.00000000;0.00000000;2023-04-15T12:24:09;21.70;54.20
26521;DHT22;14192;0.00000000;0.00000000;2023-04-15T12:26:43;21.70;55.00
26521;DHT22;14192;0.00000000;0.00000000;2023-04-15T12:29:13;21.70;55.40
26521;DHT22;14192;0.00000000;0.00000000;2023-04-15T12:31:51;21.60;55.60
26521;DHT22;14192;0.00000000;0.00000000;2023-04-15T12:34:26;21.60;55.50
26521;DHT22;14192;0.00000000;0.00000000;2023-04-15T12:36:54;21.60;54.90
26521;DHT22;14192;0.00000000;0.00000000;2023-04-15T12:39:23;21.60;54.60
26521;DHT22;14192;0.00000000;0.00000000;2023-04-15T12:41:50;21.60;55.30
26521;DHT22;14192;0.00000000;0.00000000;2023-04-15T12:44:19;21.60;55.30
26521;DHT22;14192;0.00000000;0.00000000;2023-04-15T12:46:46;21.60;55.30
26521;DHT22;14192;0.00000000;0.00000000;2023-04-15T12:49:13;21.50;55.10
26521;DHT22;14192;0.00000000;0.00000000;2023-04-15T12:51:41;21.50;55.20
26521;DHT22;14192;0.00000000;0.00000000;2023-04-15T12:54:08;21.50;55.20
26521;DHT22;14192;0.00000000;0.00000000;2023-04-15T12:56:35;21.50;55.20
26521;DHT22;14192;0.00000000;0.00000000;2023-04-15T12:59:02;21.50;55.20
26521;DHT22;14192;0.00000000;0.00000000;2023-04-15T13:01:31;21.50;55.00
26521;DHT22;14192;0.00000000;0.00000000;2023-04-15T13:03:58;21.50;55.00
26521;DHT22;14192;0.00000000;0.00000000;2023-04-15T13:06:25;21.40;54.80
26521;DHT22;14192;0.00000000;0.00000000;2023-04-15T13:08:53;21.40;54.60
26521;DHT22;14192;0.00000000;0.00000000;2023-04-15T13:11:21;21.40;54.30
26521;DHT22;14192;0.00000000;0.00000000;2023-04-15T13:13:48;21.40;53.90
26521;DHT22;14192;0.00000000;0.00000000;2023-04-15T13:16:16;21.40;53.80
26521;DHT22;14192;0.00000000;0.00000000;2023-04-15T13:18:45;21.30;53.60
26521;DHT22;14192;0.00000000;0.00000000;2023-04-15T13:21:12;21.30;53.40
26521;DHT22;14192;0.00000000;0.00000000;2023-04-15T13:23:40;21.30;53.20
26521;DHT22;14192;0.00000000;0.00000000;2023-04-15T13:26:07;21.30;53.20
26521;DHT22;14192;0.00000000;0.00000000;2023-04-15T13:28:34;21.30;53.80
26521;DHT22;14192;0.00000000;0.00000000;2023-04-15T13:31:01;21.30;53.10
26521;DHT22;14192;0.00000000;0.00000000;2023-04-15T13:33:28;21.20;53.00
26521;DHT22;14192;0.00000000;0.00000000;2023-04-15T13:35:57;21.20;52.80
26521;DHT22;14192;0.00000000;0.00000000;2023-04-15T13:38:24;21.20;52.80
26521;DHT22;14192;0.00000000;0.00000000;2023-04-15T13:40:51;21.20;52.80
26521;DHT22;14192;0.00000000;0.00000000;2023-04-15T13:43:18;21.20;52.90
26521;DHT22;14192;0.00000000;0.00000000;2023-04-15T13:45:46;21.30;52.80
26521;DHT22;14192;0.00000000;0.00000000;2023-04-15T13:48:13;21.10;52.70
26521;DHT22;14192;0.00000000;0.00000000;2023-04-15T13:50:40;21.10;52.80
26521;DHT22;14192;0.00000000;0.00000000;2023-04-15T13:53:11;21.10;52.80
26521;DHT22;14192;0.00000000;0.00000000;2023-04-15T13:55:38;21.10;52.90
26521;DHT22;14192;0.00000000;0.00000000;2023-04-15T13:58:07;21.10;52.90
26521;DHT22;14192;0.00000000;0.00000000;2023-04-15T14:00:34;21.10;53.00
26521;DHT22;14192;0.00000000;0.00000000;2023-04-15T14:03:01;21.10;53.20
26521;DHT22;14192;0.00000000;0.00000000;2023-04-15T14:05:29;21.10;53.10
26521;DHT22;14192;0.00000000;0.00000000;2023-04-15T14:07:56;21.10;53.20
26521;DHT22;14192;0.00000000;0.00000000;2023-04-15T14:10:27;21.10;53.20
26521;DHT22;14192;0.00000000;0.00000000;2023-04-15T14:15:21;21.10;52.60